Time;durP1;ratioP1;P1;durP2;ratioP2;P2;SDS_P1;SDS_P2;PMS_P1;PMS_P2;Temp;Humidity;BMP_temperature;BMP_pressure;BME280_temperature;BME280_humidity;BME280_pressure;Samples;Min_cycle;Max_cycle;Signal;HPM_P1;HPM_P2
2022/06/05 00:01:21;;;;;;;0.80;0.30;;;14.40;99.90;;;;;;5052569;28;20025;-75
2022/06/05 00:03:54;;;;;;;1.50;0.20;;;14.50;99.90;;;;;;5052636;28;20029;-75
2022/06/05 00:06:48;;;;;;;2.28;0.40;;;14.60;99.90;;;;;;5056370;28;20388;-75
2022/06/05 00:09:29;;;;;;;1.38;0.20;;;14.80;99.90;;;;;;5055182;28;20029;-76
2022/06/05 00:12:05;;;;;;;;;;;14.90;99.90;;;;;;5057053;28;20439;-76
2022/06/05 00:14:37;;;;;;;1.70;0.40;;;15.00;99.90;;;;;;5056295;28;19920;-74
2022/06/05 00:17:10;;;;;;;0.80;0.20;;;15.00;99.90;;;;;;5056320;28;20036;-76
2022/06/05 00:19:40;;;;;;;0.55;0.20;;;15.10;99.90;;;;;;5056306;28;20021;-76
2022/06/05 00:22:07;;;;;;;1.13;0.30;;;15.20;99.90;;;;;;5054923;28;20025;-75
2022/06/05 00:24:36;;;;;;;0.45;0.10;;;15.30;99.90;;;;;;5056084;28;20021;-75
2022/06/05 00:27:21;;;;;;;1.48;0.30;;;15.50;99.90;;;;;;5056075;28;20028;-74
2022/06/05 00:30:17;;;;;;;0.55;0.32;;;15.50;99.90;;;;;;5054697;28;20036;-75
2022/06/05 00:32:59;;;;;;;0.98;0.25;;;15.50;99.90;;;;;;5056093;28;20025;-75
2022/06/05 00:35:33;;;;;;;0.90;0.28;;;15.60;99.90;;;;;;5054687;28;20033;-70
2022/06/05 00:38:19;;;;;;;1.15;0.30;;;15.90;99.90;;;;;;5054539;28;20028;-74
2022/06/05 00:41:04;;;;;;;0.20;0.20;;;15.90;99.90;;;;;;5055522;28;20033;-74
2022/06/05 00:43:32;;;;;;;1.90;0.30;;;16.10;99.90;;;;;;5054199;28;20104;-73
2022/06/05 00:45:59;;;;;;;1.20;0.40;;;16.00;99.90;;;;;;5070868;28;20024;-74
2022/06/05 00:48:27;;;;;;;1.23;0.55;;;16.10;99.90;;;;;;5056292;28;20499;-73
2022/06/05 00:50:54;;;;;;;0.45;0.10;;;16.10;99.90;;;;;;5056167;28;20104;-76
2022/06/05 00:53:22;;;;;;;1.52;0.20;;;16.10;99.90;;;;;;5055452;28;20025;-76
2022/06/05 00:55:52;;;;;;;0.77;0.20;;;16.30;99.90;;;;;;5054091;28;20029;-77
2022/06/05 00:58:21;;;;;;;0.60;0.15;;;16.30;99.90;;;;;;5055463;28;20438;-76
2022/06/05 01:00:53;;;;;;;0.35;0.20;;;16.30;99.90;;;;;;5070561;28;20029;-76
2022/06/05 01:03:23;;;;;;;1.00;0.20;;;16.20;99.90;;;;;;5055391;28;20174;-75
2022/06/05 01:05:51;;;;;;;1.67;0.23;;;16.10;99.90;;;;;;5055078;28;20439;-76
2022/06/05 01:08:19;;;;;;;0.93;0.30;;;16.20;99.90;;;;;;5055173;28;20017;-76
2022/06/05 01:11:23;;;;;;;0.55;0.20;;;16.30;99.90;;;;;;5055260;28;20504;-76
2022/06/05 01:14:05;;;;;;;1.48;0.22;;;16.50;99.90;;;;;;5053620;28;20049;-77
2022/06/05 01:16:40;;;;;;;0.38;0.10;;;16.40;99.90;;;;;;5054188;28;20021;-76
2022/06/05 01:19:23;;;;;;;1.50;0.30;;;16.40;99.90;;;;;;5055069;28;20023;-76
2022/06/05 01:22:11;;;;;;;1.23;0.20;;;16.50;99.90;;;;;;5054985;28;20439;-77
2022/06/05 01:24:46;;;;;;;1.65;0.30;;;16.60;99.90;;;;;;5055200;28;20029;-76
2022/06/05 01:27:18;;;;;;;1.88;0.20;;;16.60;99.90;;;;;;5055065;28;20060;-76
2022/06/05 01:29:53;;;;;;;1.30;0.20;;;16.80;99.90;;;;;;5054912;28;20075;-76
2022/06/05 01:32:51;;;;;;;0.88;0.20;;;16.90;99.90;;;;;;5054917;28;20027;-76
2022/06/05 01:35:34;;;;;;;1.60;0.30;;;16.90;99.90;;;;;;5054796;28;20388;-77
2022/06/05 01:38:08;;;;;;;0.60;0.15;;;16.90;99.90;;;;;;5055189;28;20024;-76
2022/06/05 01:40:45;;;;;;;0.88;0.20;;;17.00;99.90;;;;;;5054754;28;20096;-76
2022/06/05 01:43:25;;;;;;;1.10;0.35;;;16.80;99.90;;;;;;5054701;28;20032;-76
2022/06/05 01:46:14;;;;;;;1.08;0.55;;;16.80;99.90;;;;;;5053267;28;20029;-76
2022/06/05 01:49:02;;;;;;;2.45;0.40;;;16.90;99.90;;;;;;5054602;28;20024;-76
2022/06/05 01:51:48;;;;;;;0.60;0.40;;;17.00;99.90;;;;;;5053144;28;20430;-76
2022/06/05 01:54:24;;;;;;;1.45;0.40;;;17.20;99.90;;;;;;5054406;28;20033;-76
2022/06/05 01:56:56;;;;;;;1.75;0.40;;;17.30;99.90;;;;;;5053113;28;20057;-76
2022/06/05 01:59:47;;;;;;;1.45;0.45;;;17.20;99.90;;;;;;5054262;28;20477;-77
2022/06/05 02:02:27;;;;;;;0.30;0.10;;;17.40;99.90;;;;;;5054396;28;20025;-75
2022/06/05 02:05:06;;;;;;;0.55;0.20;;;17.40;99.90;;;;;;5069711;28;20032;-76
2022/06/05 02:07:57;;;;;;;0.85;0.40;;;17.20;99.90;;;;;;5052949;28;20087;-76
2022/06/05 02:10:58;;;;;;;0.28;0.25;;;17.20;99.90;;;;;;5053983;28;20029;-76
2022/06/05 02:13:26;;;;;;;0.20;0.20;;;17.30;99.90;;;;;;5045194;28;20119;-77
2022/06/05 02:15:54;;;;;;;0.60;0.10;;;17.50;99.90;;;;;;5054148;28;20031;-76
2022/06/05 02:18:22;;;;;;;0.75;0.10;;;17.50;99.90;;;;;;5052754;28;20064;-75
2022/06/05 02:20:50;;;;;;;0.95;0.20;;;17.60;99.90;;;;;;5054192;28;20454;-76
2022/06/05 02:23:22;;;;;;;3.10;0.38;;;17.70;99.90;;;;;;5053897;28;20021;-76
2022/06/05 02:25:50;;;;;;;0.43;0.10;;;17.90;99.90;;;;;;5053851;28;20108;-76
2022/06/05 02:28:21;;;;;;;0.82;0.10;;;17.80;99.90;;;;;;5054172;28;20096;-76
2022/06/05 02:31:15;;;;;;;1.08;0.35;;;17.70;99.90;;;;;;5053965;28;20120;-75
2022/06/05 02:33:55;;;;;;;0.85;0.10;;;18.00;99.90;;;;;;5053862;28;20099;-76
2022/06/05 02:36:39;;;;;;;1.05;0.40;;;17.90;99.90;;;;;;5053867;28;20025;-76
2022/06/05 02:39:18;;;;;;;0.40;0.20;;;18.20;99.90;;;;;;5053634;28;20104;-76
2022/06/05 02:42:06;;;;;;;1.40;0.20;;;18.30;99.90;;;;;;5053786;28;20028;-77
2022/06/05 02:44:52;;;;;;;0.98;0.20;;;18.50;99.90;;;;;;5052356;28;20036;-77
2022/06/05 02:47:32;;;;;;;1.42;0.20;;;18.30;99.90;;;;;;5053813;28;20032;-77
2022/06/05 02:50:02;;;;;;;0.60;0.30;;;18.20;99.90;;;;;;5053948;28;20059;-76
2022/06/05 02:52:32;;;;;;;1.30;0.35;;;18.30;99.90;;;;;;5053564;28;20017;-76
2022/06/05 02:55:09;;;;;;;1.05;0.30;;;18.30;99.90;;;;;;5053391;28;20020;-77
2022/06/05 02:57:37;;;;;;;0.93;0.30;;;18.10;99.90;;;;;;5052074;28;20037;-77
2022/06/05 03:00:08;;;;;;;0.73;0.25;;;18.10;99.90;;;;;;5051953;28;20036;-76
2022/06/05 03:05:20;;;;;;;1.80;0.45;;;17.60;99.90;;;;;;5053249;28;20095;-77
2022/06/05 03:07:49;;;;;;;0.65;0.10;;;17.40;99.90;;;;;;5053399;28;20097;-76
2022/06/05 03:10:16;;;;;;;2.00;0.25;;;17.20;99.90;;;;;;5053035;28;20017;-76
2022/06/05 03:12:44;;;;;;;1.80;0.22;;;17.00;99.90;;;;;;5053213;28;20074;-76
2022/06/05 03:15:12;;;;;;;1.40;0.30;;;16.90;99.90;;;;;;5068221;28;20048;-76
2022/06/05 03:17:39;;;;;;;1.45;0.38;;;17.00;99.90;;;;;;5053005;28;20484;-76
2022/06/05 03:20:07;;;;;;;0.43;0.20;;;17.20;99.90;;;;;;5053013;28;20060;-76
2022/06/05 03:22:34;;;;;;;0.75;0.25;;;17.20;99.90;;;;;;5052981;28;20021;-77
2022/06/05 03:25:02;;;;;;;1.00;0.35;;;17.00;99.90;;;;;;5052923;28;20021;-77
2022/06/05 03:27:31;;;;;;;0.65;0.22;;;17.10;99.90;;;;;;5052938;28;20029;-75
2022/06/05 03:29:59;;;;;;;1.23;0.40;;;17.00;99.90;;;;;;5052814;28;20087;-76
2022/06/05 03:32:27;;;;;;;0.57;0.20;;;17.00;99.90;;;;;;5053183;28;20109;-76
2022/06/05 03:34:55;;;;;;;1.65;0.30;;;16.90;99.90;;;;;;5052818;28;20013;-76
2022/06/05 03:37:22;;;;;;;1.10;0.30;;;16.80;99.90;;;;;;5052979;28;20032;-76
2022/06/05 03:39:50;;;;;;;0.63;0.17;;;16.90;99.90;;;;;;5052311;28;20025;-76
2022/06/05 03:42:17;;;;;;;0.60;0.20;;;16.80;99.90;;;;;;5052992;28;20366;-76
2022/06/05 03:44:44;;;;;;;1.70;0.35;;;16.70;99.90;;;;;;5053310;28;20100;-76
2022/06/05 03:47:12;;;;;;;0.40;0.10;;;16.70;99.90;;;;;;5052617;28;20032;-76
2022/06/05 03:49:40;;;;;;;0.70;0.20;;;16.60;99.90;;;;;;5052885;28;20017;-77
2022/06/05 03:52:09;;;;;;;1.45;0.20;;;16.70;99.90;;;;;;5051270;28;20024;-76
2022/06/05 03:54:39;;;;;;;0.38;0.10;;;16.70;99.90;;;;;;5052648;28;20055;-76
2022/06/05 03:57:07;;;;;;;0.70;0.15;;;16.90;99.90;;;;;;5052650;28;20024;-77
2022/06/05 03:59:36;;;;;;;0.95;0.10;;;17.10;99.90;;;;;;5052590;28;20381;-76
2022/06/05 04:02:07;;;;;;;0.50;0.20;;;17.10;99.90;;;;;;5052640;28;20032;-76
2022/06/05 04:04:35;;;;;;;1.27;0.20;;;17.10;99.90;;;;;;5052610;28;20385;-76
2022/06/05 04:07:02;;;;;;;1.35;0.20;;;17.20;99.90;;;;;;5052459;28;20032;-77
2022/06/05 04:09:29;;;;;;;0.22;0.22;;;17.10;99.90;;;;;;5052809;28;20017;-76
2022/06/05 04:11:57;;;;;;;2.05;0.20;;;17.10;99.90;;;;;;5052425;28;20021;-76
2022/06/05 04:14:25;;;;;;;0.30;0.10;;;16.90;99.90;;;;;;5050999;28;20049;-75
2022/06/05 04:16:52;;;;;;;0.30;0.15;;;16.90;99.90;;;;;;5052414;28;20025;-76
2022/06/05 04:19:21;;;;;;;0.88;0.32;;;16.80;99.90;;;;;;5052448;28;20473;-76
2022/06/05 04:21:48;;;;;;;1.15;0.20;;;16.80;99.90;;;;;;5051051;28;20028;-75
2022/06/05 04:24:16;;;;;;;0.90;0.20;;;16.80;99.90;;;;;;5051046;28;20021;-76
2022/06/05 04:26:45;;;;;;;0.77;0.20;;;16.80;99.90;;;;;;5052201;28;20116;-75
2022/06/05 04:29:12;;;;;;;1.00;0.40;;;16.80;99.90;;;;;;5052424;28;20078;-76
2022/06/05 04:31:45;;;;;;;1.40;0.20;;;16.80;99.90;;;;;;5052241;28;20472;-76
2022/06/05 04:34:15;;;;;;;1.02;0.20;;;16.80;99.90;;;;;;5052327;28;20018;-76
2022/06/05 04:36:43;;;;;;;;;;;16.90;99.90;;;;;;5052806;28;20036;-75
2022/06/05 04:39:11;;;;;;;0.40;0.10;;;16.80;99.90;;;;;;5052247;28;20357;-76
2022/06/05 04:41:39;;;;;;;1.05;0.30;;;16.70;99.90;;;;;;5052501;28;20098;-76
2022/06/05 04:44:08;;;;;;;1.08;0.38;;;16.60;99.90;;;;;;5050897;28;20461;-76
2022/06/05 04:46:36;;;;;;;0.40;0.10;;;16.50;99.90;;;;;;5050764;28;20119;-76
2022/06/05 04:49:06;;;;;;;1.65;0.20;;;16.50;99.90;;;;;;5050742;28;20067;-77
2022/06/05 04:51:36;;;;;;;1.07;0.20;;;16.40;99.90;;;;;;5052745;28;20057;-77
2022/06/05 04:54:05;;;;;;;0.57;0.20;;;16.30;99.90;;;;;;5070794;28;20266;-78
2022/06/05 04:56:33;;;;;;;0.38;0.20;;;16.20;99.90;;;;;;5055492;28;20169;-77
2022/06/05 04:59:01;;;;;;;2.05;0.20;;;16.20;99.90;;;;;;5055494;28;20027;-77
2022/06/05 05:01:32;;;;;;;0.95;0.20;;;16.10;99.90;;;;;;5055557;28;20021;-77
2022/06/05 05:04:03;;;;;;;0.50;0.20;;;16.00;99.90;;;;;;5055500;28;20528;-77
2022/06/05 05:06:32;;;;;;;0.80;0.40;;;15.90;99.90;;;;;;5070602;28;20052;-77
2022/06/05 05:09:00;;;;;;;0.38;0.22;;;15.90;99.90;;;;;;5055521;28;20017;-77
2022/06/05 05:11:28;;;;;;;0.50;0.20;;;15.90;99.90;;;;;;5055090;28;20431;-77
2022/06/05 05:13:56;;;;;;;0.90;0.20;;;15.80;99.90;;;;;;5070226;28;20195;-77
2022/06/05 05:16:25;;;;;;;1.25;0.10;;;15.80;99.90;;;;;;5054078;28;20078;-77
2022/06/05 05:18:54;;;;;;;0.90;0.40;;;15.70;99.90;;;;;;5053658;28;20037;-77
2022/06/05 05:21:24;;;;;;;1.00;0.40;;;15.70;99.90;;;;;;5070301;28;20112;-77
2022/06/05 05:23:52;;;;;;;1.00;0.52;;;15.70;99.90;;;;;;5055091;28;20028;-77
2022/06/05 05:26:29;;;;;;;0.65;0.28;;;15.60;99.90;;;;;;5054871;28;20029;-77
2022/06/05 05:28:59;;;;;;;1.48;0.55;;;15.60;99.90;;;;;;5054938;28;20477;-76
2022/06/05 05:31:33;;;;;;;0.50;0.30;;;15.60;99.90;;;;;;5054993;28;20109;-76
2022/06/05 05:34:01;;;;;;;1.15;0.20;;;15.50;99.90;;;;;;5055133;28;20261;-76
2022/06/05 05:36:29;;;;;;;1.23;0.30;;;15.40;99.90;;;;;;5054831;28;20025;-76
2022/06/05 05:44:30;;;;;;;0.82;0.30;;;15.30;99.90;;;;;;5054681;28;20059;-77
2022/06/05 05:46:58;;;;;;;0.57;0.38;;;15.30;99.90;;;;;;5054529;28;20025;-77
2022/06/05 05:49:25;;;;;;;3.15;0.85;;;15.20;99.90;;;;;;5054518;28;20024;-76
2022/06/05 05:51:52;;;;;;;1.17;0.30;;;15.30;99.90;;;;;;5053291;28;20021;-76
2022/06/05 05:54:20;;;;;;;0.85;0.40;;;15.20;99.90;;;;;;5054368;28;20017;-76
2022/06/05 05:56:47;;;;;;;0.20;0.20;;;15.10;99.90;;;;;;5054465;28;20108;-77
2022/06/05 05:59:15;;;;;;;0.98;0.38;;;15.10;99.90;;;;;;5053137;28;20458;-78
2022/06/05 06:01:42;;;;;;;1.58;0.75;;;15.10;99.90;;;;;;5054322;28;20075;-78
2022/06/05 06:04:12;;;;;;;0.93;0.30;;;15.00;99.90;;;;;;5052597;28;20056;-76
2022/06/05 06:06:43;;;;;;;0.77;0.30;;;15.00;99.90;;;;;;5052900;28;20063;-75
2022/06/05 06:09:10;;;;;;;0.68;0.20;;;14.90;99.90;;;;;;5054234;28;20058;-75
2022/06/05 06:11:38;;;;;;;0.45;0.32;;;14.90;99.90;;;;;;5054154;28;20021;-75
2022/06/05 06:14:05;;;;;;;1.42;0.43;;;14.80;99.90;;;;;;5053775;28;20044;-75
2022/06/05 06:16:33;;;;;;;1.48;0.30;;;14.80;99.90;;;;;;5054005;28;20508;-74
2022/06/05 06:19:01;;;;;;;0.98;0.30;;;14.80;99.90;;;;;;5053981;28;20028;-75
2022/06/05 06:21:29;;;;;;;2.33;0.40;;;14.80;99.90;;;;;;5053801;28;20025;-75
2022/06/05 06:23:56;;;;;;;0.73;0.38;;;14.80;99.90;;;;;;5052641;28;20082;-76
2022/06/05 06:26:23;;;;;;;1.30;0.30;;;14.70;99.90;;;;;;5069126;28;20029;-72
2022/06/05 06:28:51;;;;;;;0.40;0.30;;;14.70;99.90;;;;;;5052557;28;20029;-76
2022/06/05 06:31:18;;;;;;;1.67;0.50;;;14.70;99.90;;;;;;5053762;28;20021;-75
2022/06/05 06:33:48;;;;;;;1.52;0.90;;;14.60;99.90;;;;;;5053805;28;20565;-77
2022/06/05 06:36:18;;;;;;;0.60;0.40;;;14.50;99.90;;;;;;5053702;28;20025;-74
2022/06/05 06:38:45;;;;;;;0.32;0.30;;;14.50;99.90;;;;;;5053755;28;20021;-75
2022/06/05 06:41:16;;;;;;;1.05;0.40;;;14.40;99.90;;;;;;5053822;28;20025;-75
2022/06/05 06:43:44;;;;;;;0.75;0.40;;;14.30;99.90;;;;;;5053639;28;20104;-74
2022/06/05 06:46:13;;;;;;;2.55;0.50;;;14.20;99.90;;;;;;5053408;28;20021;-73
2022/06/05 06:48:40;;;;;;;3.80;0.50;;;14.20;99.90;;;;;;5053421;28;20026;-75
2022/06/05 06:51:09;;;;;;;7.85;0.80;;;14.10;99.90;;;;;;5053305;28;20090;-74
2022/06/05 06:53:38;;;;;;;1.27;0.40;;;14.00;99.90;;;;;;5053380;28;20025;-76
2022/06/05 06:56:10;;;;;;;0.93;0.45;;;14.00;99.90;;;;;;5053173;28;20025;-72
2022/06/05 06:58:38;;;;;;;1.90;0.30;;;13.90;99.90;;;;;;5053542;28;20082;-74
2022/06/05 07:01:05;;;;;;;1.20;0.40;;;13.90;99.90;;;;;;5068757;28;20068;-74
2022/06/05 07:03:34;;;;;;;1.17;0.40;;;13.80;99.90;;;;;;5051849;28;20033;-74
2022/06/05 07:06:10;;;;;;;2.72;0.60;;;13.80;99.90;;;;;;5052979;28;20021;-73
2022/06/05 07:08:39;;;;;;;1.13;0.50;;;13.80;99.90;;;;;;5051757;28;20055;-75
2022/06/05 07:11:11;;;;;;;1.83;0.38;;;13.70;99.90;;;;;;5053184;28;20017;-74
2022/06/05 07:13:38;;;;;;;2.10;0.80;;;13.70;99.90;;;;;;5052814;28;20061;-75
2022/06/05 07:16:07;;;;;;;2.25;1.60;;;13.60;99.90;;;;;;5054053;28;20021;-77
2022/06/05 07:18:35;;;;;;;1.20;0.95;;;13.50;99.90;;;;;;5054085;28;20362;-78
2022/06/05 07:21:17;;;;;;;2.22;1.48;;;13.40;99.90;;;;;;5054760;28;20100;-78
2022/06/05 07:23:45;;;;;;;1.58;1.17;;;13.50;99.90;;;;;;5054809;28;20385;-78
2022/06/05 07:26:15;;;;;;;1.50;1.20;;;13.40;99.90;;;;;;5055086;28;20517;-78
2022/06/05 07:28:43;;;;;;;1.15;1.00;;;13.30;99.90;;;;;;5055059;28;20044;-78
2022/06/05 07:31:12;;;;;;;1.67;1.02;;;13.30;99.90;;;;;;5054525;28;20028;-78
2022/06/05 07:33:41;;;;;;;1.17;0.90;;;13.20;99.90;;;;;;5053423;28;20021;-78
2022/06/05 07:36:14;;;;;;;1.80;1.42;;;13.10;99.90;;;;;;5053968;28;20074;-78
2022/06/05 07:38:43;;;;;;;2.05;1.35;;;13.00;99.90;;;;;;5052629;28;20028;-78
2022/06/05 07:41:28;;;;;;;1.27;0.88;;;12.90;99.90;;;;;;5052627;28;20028;-77
2022/06/05 07:43:56;;;;;;;1.60;1.10;;;12.90;99.90;;;;;;5053854;28;20032;-78
2022/06/05 07:46:23;;;;;;;1.40;1.00;;;12.80;99.90;;;;;;5052066;28;20052;-78
2022/06/05 07:48:51;;;;;;;1.33;0.95;;;12.90;99.90;;;;;;5053983;28;20025;-79
2022/06/05 07:54:28;;;;;;;1.73;0.85;;;12.80;99.90;;;;;;5053433;28;20498;-77
2022/06/05 07:57:13;;;;;;;1.00;0.90;;;12.80;99.90;;;;;;5051395;28;20036;-78
2022/06/05 07:59:43;;;;;;;0.98;0.80;;;12.70;99.90;;;;;;5052998;28;20478;-78
2022/06/05 08:02:18;;;;;;;2.42;0.68;;;12.80;99.90;;;;;;5052688;28;20025;-77
2022/06/05 08:04:46;;;;;;;1.42;0.60;;;12.80;99.90;;;;;;5053003;28;20017;-77
2022/06/05 08:07:16;;;;;;;1.75;0.70;;;12.70;99.90;;;;;;5053110;28;20029;-79
2022/06/05 08:09:44;;;;;;;0.77;0.50;;;12.70;99.90;;;;;;5051428;28;20028;-79
2022/06/05 08:12:13;;;;;;;1.08;0.70;;;12.70;99.90;;;;;;5068870;28;20481;-80
2022/06/05 08:14:43;;;;;;;1.25;0.60;;;12.60;99.90;;;;;;5053032;28;20037;-78
2022/06/05 08:17:14;;;;;;;2.00;0.65;;;12.50;99.90;;;;;;5052606;28;20040;-79
2022/06/05 08:19:43;;;;;;;1.48;0.60;;;12.50;99.90;;;;;;5051423;28;20086;-79
2022/06/05 08:22:13;;;;;;;1.17;0.70;;;12.50;99.90;;;;;;5053922;28;20067;-78
2022/06/05 08:24:41;;;;;;;1.65;0.50;;;12.40;99.90;;;;;;5052627;28;20021;-78
2022/06/05 08:27:11;;;;;;;1.02;0.50;;;12.40;99.90;;;;;;5054944;28;20083;-78
2022/06/05 08:29:39;;;;;;;0.73;0.60;;;12.30;99.90;;;;;;5056951;28;20025;-78
2022/06/05 08:32:07;;;;;;;0.60;0.40;;;12.30;99.90;;;;;;5056414;28;20079;-78
2022/06/05 08:34:35;;;;;;;1.08;0.50;;;12.20;99.90;;;;;;5056760;28;20024;-79
2022/06/05 08:43:24;;;;;;;1.00;0.50;;;12.10;99.90;;;;;;5057131;28;20539;-78
2022/06/05 08:46:12;;;;;;;1.02;0.50;;;12.00;99.90;;;;;;5056498;28;20029;-80
2022/06/05 08:48:47;;;;;;;0.93;0.60;;;12.00;99.90;;;;;;5055083;28;20416;-79
2022/06/05 08:51:31;;;;;;;1.08;0.60;;;12.00;99.90;;;;;;5056090;28;20045;-80
2022/06/05 08:54:18;;;;;;;0.77;0.40;;;11.90;99.90;;;;;;5056178;28;20026;-79
2022/06/05 08:56:55;;;;;;;0.52;0.43;;;11.80;99.90;;;;;;5055168;28;20029;-80
2022/06/05 08:59:29;;;;;;;1.50;0.35;;;11.90;99.90;;;;;;5055117;28;20097;-79
2022/06/05 09:02:39;;;;;;;1.52;0.60;;;11.90;99.90;;;;;;5056501;28;20496;-78
2022/06/05 09:05:38;;;;;;;1.30;0.40;;;11.90;99.90;;;;;;5053161;28;20041;-77
2022/06/05 09:08:23;;;;;;;1.30;0.50;;;11.80;99.90;;;;;;5054869;28;20025;-77
2022/06/05 09:10:57;;;;;;;0.60;0.40;;;11.70;99.90;;;;;;5055082;28;20025;-77
2022/06/05 09:14:13;;;;;;;1.02;0.40;;;11.80;99.90;;;;;;5057153;28;20021;-78
2022/06/05 09:16:51;;;;;;;1.15;0.50;;;11.70;99.90;;;;;;5054323;28;20123;-77
2022/06/05 09:19:30;;;;;;;1.23;0.50;;;11.60;99.90;;;;;;5056361;28;20029;-76
2022/06/05 09:22:14;;;;;;;0.77;0.47;;;11.60;99.90;;;;;;5056598;28;20500;-77
2022/06/05 09:25:10;;;;;;;1.02;0.35;;;11.60;99.90;;;;;;5054559;28;20111;-78
2022/06/05 09:27:37;;;;;;;1.77;0.57;;;11.60;99.90;;;;;;5054712;28;20044;-79
2022/06/05 09:30:23;;;;;;;1.50;0.88;;;11.50;99.90;;;;;;5055975;28;20028;-78
2022/06/05 09:33:20;;;;;;;1.13;0.50;;;11.40;99.90;;;;;;5056068;28;20096;-76
2022/06/05 09:36:13;;;;;;;0.90;0.70;;;11.40;99.90;;;;;;5055431;28;20021;-77
2022/06/05 09:38:45;;;;;;;1.42;0.80;;;11.30;99.90;;;;;;5054248;28;20068;-77
2022/06/05 09:41:30;;;;;;;1.35;0.60;;;11.40;99.90;;;;;;5055325;28;20032;-77
2022/06/05 09:44:03;;;;;;;1.30;0.70;;;11.40;99.90;;;;;;5055196;28;20057;-78
2022/06/05 09:46:54;;;;;;;0.63;0.50;;;11.40;99.90;;;;;;5053474;28;20025;-76
2022/06/05 09:49:46;;;;;;;1.45;0.60;;;11.40;99.90;;;;;;5054827;28;20025;-76
2022/06/05 09:52:25;;;;;;;0.88;0.50;;;11.40;99.90;;;;;;5070452;28;20025;-76
2022/06/05 09:55:29;;;;;;;1.25;0.68;;;11.30;99.90;;;;;;5055972;28;20017;-77
2022/06/05 10:00:46;;;;;;;1.38;0.70;;;11.30;99.90;;;;;;5054832;28;20166;-78
2022/06/05 10:03:21;;;;;;;0.70;0.60;;;11.20;99.90;;;;;;5053751;28;20486;-78
2022/06/05 10:06:06;;;;;;;0.82;0.63;;;11.20;99.90;;;;;;5054506;28;20032;-76
2022/06/05 10:08:46;;;;;;;2.00;0.90;;;11.20;99.90;;;;;;5054560;28;20032;-77
2022/06/05 10:11:40;;;;;;;0.90;0.68;;;11.20;99.90;;;;;;5053109;28;20040;-77
2022/06/05 10:14:32;;;;;;;1.30;0.70;;;11.10;99.90;;;;;;5054135;28;20060;-78
2022/06/05 10:17:17;;;;;;;2.03;1.00;;;11.20;99.90;;;;;;5054550;28;20017;-78
2022/06/05 10:20:18;;;;;;;1.52;0.90;;;11.20;99.90;;;;;;5054816;28;20016;-78
2022/06/05 10:22:48;;;;;;;2.05;0.95;;;11.20;99.90;;;;;;5054669;28;20021;-75
2022/06/05 10:25:36;;;;;;;1.27;0.95;;;11.20;99.90;;;;;;5054401;28;20093;-80
2022/06/05 10:28:15;;;;;;;1.10;0.70;;;11.20;99.90;;;;;;5054480;28;20036;-78
2022/06/05 10:31:05;;;;;;;2.65;1.02;;;11.30;99.90;;;;;;5054037;28;20028;-78
2022/06/05 10:33:38;;;;;;;1.60;0.70;;;11.20;99.90;;;;;;5054015;28;20160;-75
2022/06/05 10:36:34;;;;;;;1.17;0.60;;;11.20;99.90;;;;;;5054031;28;20021;-73
2022/06/05 10:39:10;;;;;;;0.57;0.40;;;11.20;99.90;;;;;;5053756;28;20385;-75
2022/06/05 10:42:03;;;;;;;0.50;0.40;;;11.10;99.90;;;;;;5053839;28;20102;-74
2022/06/05 10:45:07;;;;;;;1.65;0.40;;;11.20;99.90;;;;;;5054290;28;20100;-75
2022/06/05 10:47:43;;;;;;;1.23;0.40;;;11.10;99.90;;;;;;5052917;28;20507;-76
2022/06/05 10:50:25;;;;;;;1.13;0.50;;;11.10;99.90;;;;;;5052189;28;20511;-76
2022/06/05 10:53:20;;;;;;;1.98;0.50;;;11.10;99.90;;;;;;5054212;28;20075;-77
2022/06/05 10:56:18;;;;;;;0.55;0.40;;;11.00;99.90;;;;;;5053890;28;20049;-77
2022/06/05 10:58:57;;;;;;;1.42;0.70;;;11.00;99.90;;;;;;5053757;28;20061;-74
2022/06/05 11:01:35;;;;;;;0.82;0.52;;;11.00;99.90;;;;;;5053261;28;20056;-75
2022/06/05 11:04:17;;;;;;;0.80;0.30;;;11.00;99.90;;;;;;5053404;28;20415;-76
2022/06/05 11:07:01;;;;;;;0.50;0.20;;;11.00;99.90;;;;;;5053466;28;20120;-76
2022/06/05 11:09:46;;;;;;;0.85;0.35;;;11.00;99.90;;;;;;5053209;28;20525;-75
2022/06/05 11:15:58;;;;;;;;;;;10.90;99.90;;;;;;5053551;28;20520;-76
2022/06/05 11:18:44;;;;;;;0.80;0.30;;;10.90;99.90;;;;;;5068455;28;20040;-77
2022/06/05 11:21:18;;;;;;;0.35;0.30;;;10.80;99.90;;;;;;5051877;28;20048;-77
2022/06/05 11:23:50;;;;;;;1.08;0.50;;;10.80;99.90;;;;;;5053154;28;20043;-76
2022/06/05 11:26:34;;;;;;;0.90;0.40;;;10.70;99.90;;;;;;5053550;28;20025;-77
2022/06/05 11:29:20;;;;;;;0.73;0.43;;;10.70;99.90;;;;;;5052499;28;20459;-77
2022/06/05 11:32:07;;;;;;;0.43;0.40;;;10.60;99.90;;;;;;5053747;28;20049;-77
2022/06/05 11:34:37;;;;;;;0.60;0.40;;;10.60;99.90;;;;;;5054296;28;20031;-77
2022/06/05 11:37:22;;;;;;;0.43;0.25;;;10.60;99.90;;;;;;5054035;28;20025;-77
2022/06/05 11:40:10;;;;;;;0.88;0.40;;;10.60;99.90;;;;;;5053809;28;20159;-79
2022/06/05 11:42:44;;;;;;;0.75;0.50;;;10.60;99.90;;;;;;5054361;28;20155;-77
2022/06/05 11:45:31;;;;;;;0.30;0.30;;;10.50;99.90;;;;;;5053836;28;20103;-77
2022/06/05 11:48:05;;;;;;;0.82;0.40;;;10.50;99.90;;;;;;5053258;28;20017;-78
2022/06/05 11:50:59;;;;;;;1.50;0.50;;;10.50;99.90;;;;;;5053313;28;20025;-77
2022/06/05 11:53:35;;;;;;;1.85;0.40;;;10.50;99.90;;;;;;5052805;28;20087;-77
2022/06/05 11:56:36;;;;;;;0.32;0.30;;;10.50;99.90;;;;;;5052948;28;20035;-76
2022/06/05 11:59:42;;;;;;;0.28;0.20;;;10.40;99.90;;;;;;5052961;28;20021;-77
2022/06/05 12:02:43;;;;;;;0.95;0.50;;;10.40;99.90;;;;;;5048822;28;20033;-77
2022/06/05 12:05:10;;;;;;;;;;;10.40;99.90;;;;;;5072839;28;20021;-76
2022/06/05 12:07:38;;;;;;;0.63;0.45;;;10.40;99.90;;;;;;5055848;28;20291;-76
2022/06/05 12:10:39;;;;;;;0.70;0.30;;;10.30;99.90;;;;;;5056766;28;20489;-77
2022/06/05 12:13:30;;;;;;;0.60;0.40;;;10.30;99.90;;;;;;5055012;28;20033;-76
2022/06/05 12:16:41;;;;;;;0.60;0.20;;;10.30;99.90;;;;;;5056678;28;20111;-77
2022/06/05 12:19:37;;;;;;;1.13;0.20;;;10.20;99.90;;;;;;5056256;28;20104;-78
2022/06/05 12:22:15;;;;;;;0.50;0.30;;;10.30;99.90;;;;;;5055275;28;20516;-77
2022/06/05 12:25:01;;;;;;;0.32;0.20;;;10.20;99.90;;;;;;5057221;28;20032;-77
2022/06/05 12:27:50;;;;;;;0.43;0.25;;;10.20;99.90;;;;;;5055935;28;20503;-77
2022/06/05 12:30:32;;;;;;;1.38;0.40;;;10.10;99.90;;;;;;5055932;28;20489;-77
2022/06/05 12:33:22;;;;;;;0.47;0.30;;;10.10;99.90;;;;;;5056228;28;20024;-75
2022/06/05 12:35:53;;;;;;;0.75;0.32;;;10.10;99.90;;;;;;5056720;28;20017;-76
2022/06/05 12:38:55;;;;;;;0.75;0.40;;;10.10;99.90;;;;;;5056795;28;20163;-76
2022/06/05 12:41:25;;;;;;;0.30;0.20;;;10.10;99.90;;;;;;5056759;28;20370;-76
2022/06/05 12:44:10;;;;;;;0.50;0.20;;;10.10;99.90;;;;;;5056578;28;20510;-76
2022/06/05 12:46:57;;;;;;;0.70;0.40;;;10.10;99.90;;;;;;5056583;28;20032;-77
2022/06/05 12:49:36;;;;;;;2.03;0.28;;;10.10;99.90;;;;;;5056758;28;20469;-77
2022/06/05 12:52:27;;;;;;;0.52;0.25;;;10.10;99.90;;;;;;5056568;28;20023;-77
2022/06/05 12:55:01;;;;;;;0.32;0.25;;;10.10;99.90;;;;;;5056311;28;20092;-77
2022/06/05 12:57:50;;;;;;;0.50;0.30;;;10.10;99.90;;;;;;5056318;28;20485;-76
2022/06/05 13:00:21;;;;;;;0.93;0.20;;;10.10;99.90;;;;;;5056651;28;20025;-78
2022/06/05 13:03:18;;;;;;;0.43;0.30;;;10.10;99.90;;;;;;5056466;28;20499;-78
2022/06/05 13:05:45;;;;;;;0.95;0.75;;;10.10;99.90;;;;;;5054799;28;20114;-77
2022/06/05 13:08:24;;;;;;;0.60;0.32;;;10.10;99.90;;;;;;5055963;28;20017;-77
2022/06/05 13:11:20;;;;;;;0.30;0.10;;;10.10;99.90;;;;;;5055596;28;20444;-77
2022/06/05 13:13:58;;;;;;;1.40;0.20;;;10.10;99.90;;;;;;5069699;28;20044;-76
2022/06/05 13:16:56;;;;;;;0.70;0.20;;;10.10;99.90;;;;;;5055889;28;20435;-76
2022/06/05 13:19:43;;;;;;;0.28;0.20;;;10.10;99.90;;;;;;5055198;28;20025;-77
2022/06/05 13:22:39;;;;;;;0.28;0.10;;;10.10;99.90;;;;;;5054061;28;20401;-77
2022/06/05 13:25:16;;;;;;;1.40;0.30;;;10.00;99.90;;;;;;5071208;28;20528;-77
2022/06/05 13:28:35;;;;;;;1.13;0.45;;;10.00;99.90;;;;;;5055500;28;20028;-76
2022/06/05 13:31:26;;;;;;;0.90;0.10;;;10.00;99.90;;;;;;5053061;28;20029;-77
2022/06/05 13:34:25;;;;;;;1.08;0.20;;;10.10;99.90;;;;;;5053067;28;20488;-77
2022/06/05 13:37:02;;;;;;;1.38;0.30;;;10.10;99.90;;;;;;5050897;28;20029;-77
2022/06/05 13:39:59;;;;;;;0.68;0.50;;;10.10;99.90;;;;;;5070281;28;20389;-76
2022/06/05 13:42:31;;;;;;;1.13;0.22;;;10.00;99.90;;;;;;5054794;28;20025;-76
2022/06/05 13:45:00;;;;;;;0.40;0.20;;;10.00;99.90;;;;;;5055102;28;20051;-76
2022/06/05 13:47:55;;;;;;;0.60;0.32;;;9.90;99.90;;;;;;5054723;28;20027;-76
2022/06/05 13:50:38;;;;;;;0.30;0.20;;;9.90;99.90;;;;;;5054755;28;20025;-76
2022/06/05 13:53:14;;;;;;;2.92;0.30;;;9.80;99.90;;;;;;5053488;28;20525;-76
2022/06/05 13:56:00;;;;;;;0.43;0.20;;;9.90;99.90;;;;;;5054977;28;20032;-77
2022/06/05 13:58:34;;;;;;;0.35;0.20;;;9.90;99.90;;;;;;5054635;28;20051;-76
2022/06/05 14:01:14;;;;;;;0.20;0.20;;;9.90;99.90;;;;;;5053187;28;20199;-76